sensor_id;sensor_type;location;lat;lon;timestamp;P1;durP1;ratioP1;P2;durP2;ratioP2
54005;SDS011;39919;38.160;-122.260;2023-06-10T00:01:09;0.00;;;0.00;;
54005;SDS011;39919;38.160;-122.260;2023-06-10T00:03:38;0.52;;;0.00;;
54005;SDS011;39919;38.160;-122.260;2023-06-10T00:06:11;0.00;;;0.00;;
54005;SDS011;39919;38.160;-122.260;2023-06-10T00:08:43;0.00;;;0.00;;
54005;SDS011;39919;38.160;-122.260;2023-06-10T00:11:17;1.10;;;0.00;;
54005;SDS011;39919;38.160;-122.260;2023-06-10T00:13:50;0.52;;;0.00;;
54005;SDS011;39919;38.160;-122.260;2023-06-10T00:16:28;0.00;;;0.00;;
54005;SDS011;39919;38.160;-122.260;2023-06-10T00:19:00;0.00;;;0.00;;
54005;SDS011;39919;38.160;-122.260;2023-06-10T00:21:33;0.00;;;0.00;;
54005;SDS011;39919;38.160;-122.260;2023-06-10T00:24:06;1.65;;;0.00;;
54005;SDS011;39919;38.160;-122.260;2023-06-10T00:26:41;0.00;;;0.00;;
54005;SDS011;39919;38.160;-122.260;2023-06-10T00:29:13;1.95;;;0.00;;
54005;SDS011;39919;38.160;-122.260;2023-06-10T00:31:49;0.68;;;0.00;;
54005;SDS011;39919;38.160;-122.260;2023-06-10T00:34:23;0.20;;;0.00;;
54005;SDS011;39919;38.160;-122.260;2023-06-10T00:36:55;0.10;;;0.00;;
54005;SDS011;39919;38.160;-122.260;2023-06-10T00:39:24;1.55;;;0.00;;
54005;SDS011;39919;38.160;-122.260;2023-06-10T00:41:56;0.00;;;0.00;;
54005;SDS011;39919;38.160;-122.260;2023-06-10T00:44:27;0.00;;;0.00;;
54005;SDS011;39919;38.160;-122.260;2023-06-10T00:47:00;1.55;;;0.00;;
54005;SDS011;39919;38.160;-122.260;2023-06-10T00:49:32;1.98;;;0.00;;
54005;SDS011;39919;38.160;-122.260;2023-06-10T00:52:08;1.10;;;0.00;;
54005;SDS011;39919;38.160;-122.260;2023-06-10T00:54:41;0.00;;;0.00;;
54005;SDS011;39919;38.160;-122.260;2023-06-10T00:57:21;0.00;;;0.00;;
54005;SDS011;39919;38.160;-122.260;2023-06-10T01:00:01;0.30;;;0.00;;
54005;SDS011;39919;38.160;-122.260;2023-06-10T01:02:36;0.20;;;0.00;;
54005;SDS011;39919;38.160;-122.260;2023-06-10T01:05:08;1.55;;;0.00;;
54005;SDS011;39919;38.160;-122.260;2023-06-10T01:07:38;0.00;;;0.00;;
54005;SDS011;39919;38.160;-122.260;2023-06-10T01:10:19;0.13;;;0.00;;
54005;SDS011;39919;38.160;-122.260;2023-06-10T01:13:03;1.80;;;0.00;;
54005;SDS011;39919;38.160;-122.260;2023-06-10T01:15:37;1.38;;;0.00;;
54005;SDS011;39919;38.160;-122.260;2023-06-10T01:18:09;0.00;;;0.00;;
54005;SDS011;39919;38.160;-122.260;2023-06-10T01:20:40;1.10;;;0.00;;
54005;SDS011;39919;38.160;-122.260;2023-06-10T01:23:19;0.30;;;0.00;;
54005;SDS011;39919;38.160;-122.260;2023-06-10T01:25:51;0.00;;;0.00;;
54005;SDS011;39919;38.160;-122.260;2023-06-10T01:28:40;1.17;;;0.00;;
54005;SDS011;39919;38.160;-122.260;2023-06-10T01:31:30;0.32;;;0.00;;
54005;SDS011;39919;38.160;-122.260;2023-06-10T01:34:04;0.40;;;0.00;;
54005;SDS011;39919;38.160;-122.260;2023-06-10T01:36:40;1.52;;;0.00;;
54005;SDS011;39919;38.160;-122.260;2023-06-10T01:39:15;0.75;;;0.13;;
54005;SDS011;39919;38.160;-122.260;2023-06-10T01:44:33;0.00;;;0.00;;
54005;SDS011;39919;38.160;-122.260;2023-06-10T01:47:07;0.00;;;0.00;;
54005;SDS011;39919;38.160;-122.260;2023-06-10T01:49:36;0.15;;;0.00;;
54005;SDS011;39919;38.160;-122.260;2023-06-10T01:52:07;1.45;;;0.00;;
54005;SDS011;39919;38.160;-122.260;2023-06-10T01:54:40;0.00;;;0.00;;
54005;SDS011;39919;38.160;-122.260;2023-06-10T01:57:10;0.38;;;0.00;;
54005;SDS011;39919;38.160;-122.260;2023-06-10T01:59:39;0.80;;;0.00;;
54005;SDS011;39919;38.160;-122.260;2023-06-10T02:02:11;0.47;;;0.00;;
54005;SDS011;39919;38.160;-122.260;2023-06-10T02:04:41;0.88;;;0.00;;
54005;SDS011;39919;38.160;-122.260;2023-06-10T02:07:19;0.08;;;0.00;;
54005;SDS011;39919;38.160;-122.260;2023-06-10T02:09:53;1.23;;;0.00;;
54005;SDS011;39919;38.160;-122.260;2023-06-10T02:12:26;0.03;;;0.00;;
54005;SDS011;39919;38.160;-122.260;2023-06-10T02:14:58;1.77;;;0.00;;
54005;SDS011;39919;38.160;-122.260;2023-06-10T02:17:29;0.10;;;0.00;;
54005;SDS011;39919;38.160;-122.260;2023-06-10T02:20:01;0.95;;;0.00;;
54005;SDS011;39919;38.160;-122.260;2023-06-10T02:22:32;3.42;;;0.00;;
54005;SDS011;39919;38.160;-122.260;2023-06-10T02:25:07;0.45;;;0.00;;
54005;SDS011;39919;38.160;-122.260;2023-06-10T02:27:37;0.10;;;0.05;;
54005;SDS011;39919;38.160;-122.260;2023-06-10T02:30:06;0.05;;;0.00;;
54005;SDS011;39919;38.160;-122.260;2023-06-10T02:32:39;0.03;;;0.00;;
54005;SDS011;39919;38.160;-122.260;2023-06-10T02:35:22;0.10;;;0.00;;
54005;SDS011;39919;38.160;-122.260;2023-06-10T02:37:51;0.00;;;0.00;;
54005;SDS011;39919;38.160;-122.260;2023-06-10T02:40:24;0.55;;;0.00;;
54005;SDS011;39919;38.160;-122.260;2023-06-10T02:42:55;0.10;;;0.00;;
54005;SDS011;39919;38.160;-122.260;2023-06-10T02:45:25;0.15;;;0.00;;
54005;SDS011;39919;38.160;-122.260;2023-06-10T02:47:54;0.82;;;0.10;;
54005;SDS011;39919;38.160;-122.260;2023-06-10T02:50:27;0.00;;;0.00;;
54005;SDS011;39919;38.160;-122.260;2023-06-10T02:53:09;0.20;;;0.00;;
54005;SDS011;39919;38.160;-122.260;2023-06-10T02:55:44;0.00;;;0.00;;
54005;SDS011;39919;38.160;-122.260;2023-06-10T02:58:16;0.90;;;0.00;;
54005;SDS011;39919;38.160;-122.260;2023-06-10T03:00:48;0.08;;;0.00;;
54005;SDS011;39919;38.160;-122.260;2023-06-10T03:03:17;0.00;;;0.00;;
54005;SDS011;39919;38.160;-122.260;2023-06-10T03:05:52;0.57;;;0.00;;
54005;SDS011;39919;38.160;-122.260;2023-06-10T03:08:24;0.10;;;0.00;;
54005;SDS011;39919;38.160;-122.260;2023-06-10T03:10:55;0.40;;;0.00;;
54005;SDS011;39919;38.160;-122.260;2023-06-10T03:13:34;0.05;;;0.00;;
54005;SDS011;39919;38.160;-122.260;2023-06-10T03:16:03;0.10;;;0.00;;
54005;SDS011;39919;38.160;-122.260;2023-06-10T03:18:35;0.32;;;0.00;;
54005;SDS011;39919;38.160;-122.260;2023-06-10T03:21:09;0.32;;;0.00;;
54005;SDS011;39919;38.160;-122.260;2023-06-10T03:23:41;0.00;;;0.00;;
54005;SDS011;39919;38.160;-122.260;2023-06-10T03:26:15;0.13;;;0.13;;
54005;SDS011;39919;38.160;-122.260;2023-06-10T03:28:47;0.00;;;0.00;;
54005;SDS011;39919;38.160;-122.260;2023-06-10T03:31:18;1.20;;;0.00;;
54005;SDS011;39919;38.160;-122.260;2023-06-10T03:33:48;0.25;;;0.00;;
54005;SDS011;39919;38.160;-122.260;2023-06-10T03:36:17;0.28;;;0.25;;
54005;SDS011;39919;38.160;-122.260;2023-06-10T03:38:50;0.10;;;0.00;;
54005;SDS011;39919;38.160;-122.260;2023-06-10T03:41:24;0.20;;;0.00;;
54005;SDS011;39919;38.160;-122.260;2023-06-10T03:44:00;2.10;;;0.00;;
54005;SDS011;39919;38.160;-122.260;2023-06-10T03:46:33;0.25;;;0.08;;
54005;SDS011;39919;38.160;-122.260;2023-06-10T03:49:05;0.17;;;0.00;;
54005;SDS011;39919;38.160;-122.260;2023-06-10T03:51:44;1.20;;;0.00;;
54005;SDS011;39919;38.160;-122.260;2023-06-10T03:54:16;0.75;;;0.00;;
54005;SDS011;39919;38.160;-122.260;2023-06-10T03:56:51;0.00;;;0.00;;
54005;SDS011;39919;38.160;-122.260;2023-06-10T03:59:23;2.97;;;0.20;;
54005;SDS011;39919;38.160;-122.260;2023-06-10T04:01:54;0.60;;;0.00;;
54005;SDS011;39919;38.160;-122.260;2023-06-10T04:04:24;1.13;;;0.00;;
54005;SDS011;39919;38.160;-122.260;2023-06-10T04:06:59;0.00;;;0.00;;
54005;SDS011;39919;38.160;-122.260;2023-06-10T04:09:28;1.13;;;0.00;;
54005;SDS011;39919;38.160;-122.260;2023-06-10T04:12:07;1.00;;;0.00;;
54005;SDS011;39919;38.160;-122.260;2023-06-10T04:14:40;0.63;;;0.00;;
54005;SDS011;39919;38.160;-122.260;2023-06-10T04:17:12;0.98;;;0.15;;
54005;SDS011;39919;38.160;-122.260;2023-06-10T04:19:42;0.10;;;0.00;;
54005;SDS011;39919;38.160;-122.260;2023-06-10T04:22:13;0.43;;;0.00;;
54005;SDS011;39919;38.160;-122.260;2023-06-10T04:24:45;0.28;;;0.00;;
54005;SDS011;39919;38.160;-122.260;2023-06-10T04:27:19;0.00;;;0.00;;
54005;SDS011;39919;38.160;-122.260;2023-06-10T04:29:49;0.43;;;0.00;;
54005;SDS011;39919;38.160;-122.260;2023-06-10T04:32:21;0.00;;;0.00;;
54005;SDS011;39919;38.160;-122.260;2023-06-10T04:34:50;1.02;;;0.00;;
54005;SDS011;39919;38.160;-122.260;2023-06-10T04:40:00;0.25;;;0.00;;
54005;SDS011;39919;38.160;-122.260;2023-06-10T04:42:33;0.00;;;0.00;;
54005;SDS011;39919;38.160;-122.260;2023-06-10T04:45:07;0.20;;;0.00;;
54005;SDS011;39919;38.160;-122.260;2023-06-10T04:47:36;0.32;;;0.00;;
54005;SDS011;39919;38.160;-122.260;2023-06-10T04:50:06;0.90;;;0.00;;
54005;SDS011;39919;38.160;-122.260;2023-06-10T04:52:36;0.57;;;0.10;;
54005;SDS011;39919;38.160;-122.260;2023-06-10T04:55:07;0.80;;;0.00;;
54005;SDS011;39919;38.160;-122.260;2023-06-10T04:57:38;0.30;;;0.00;;
54005;SDS011;39919;38.160;-122.260;2023-06-10T05:00:08;4.88;;;0.10;;
54005;SDS011;39919;38.160;-122.260;2023-06-10T05:02:39;0.70;;;0.00;;
54005;SDS011;39919;38.160;-122.260;2023-06-10T05:05:08;1.05;;;0.00;;
54005;SDS011;39919;38.160;-122.260;2023-06-10T05:07:40;0.65;;;0.10;;
54005;SDS011;39919;38.160;-122.260;2023-06-10T05:10:09;1.30;;;0.00;;
54005;SDS011;39919;38.160;-122.260;2023-06-10T05:12:43;0.47;;;0.00;;
54005;SDS011;39919;38.160;-122.260;2023-06-10T05:15:13;1.17;;;0.00;;
54005;SDS011;39919;38.160;-122.260;2023-06-10T05:17:48;0.75;;;0.00;;
54005;SDS011;39919;38.160;-122.260;2023-06-10T05:20:21;0.35;;;0.00;;
54005;SDS011;39919;38.160;-122.260;2023-06-10T05:22:59;2.08;;;0.00;;
54005;SDS011;39919;38.160;-122.260;2023-06-10T05:25:28;0.47;;;0.05;;
54005;SDS011;39919;38.160;-122.260;2023-06-10T05:28:03;0.20;;;0.00;;
54005;SDS011;39919;38.160;-122.260;2023-06-10T05:30:35;1.08;;;0.00;;
54005;SDS011;39919;38.160;-122.260;2023-06-10T05:33:07;0.20;;;0.00;;
54005;SDS011;39919;38.160;-122.260;2023-06-10T05:35:37;0.20;;;0.03;;
54005;SDS011;39919;38.160;-122.260;2023-06-10T05:38:10;0.30;;;0.00;;
54005;SDS011;39919;38.160;-122.260;2023-06-10T05:40:41;0.47;;;0.22;;
54005;SDS011;39919;38.160;-122.260;2023-06-10T05:43:15;3.97;;;0.00;;
54005;SDS011;39919;38.160;-122.260;2023-06-10T05:45:49;0.73;;;0.00;;
54005;SDS011;39919;38.160;-122.260;2023-06-10T05:48:22;0.25;;;0.00;;
54005;SDS011;39919;38.160;-122.260;2023-06-10T05:50:52;0.17;;;0.00;;
54005;SDS011;39919;38.160;-122.260;2023-06-10T05:53:25;0.00;;;0.00;;
54005;SDS011;39919;38.160;-122.260;2023-06-10T05:55:55;1.15;;;0.00;;
54005;SDS011;39919;38.160;-122.260;2023-06-10T05:58:29;0.17;;;0.00;;
54005;SDS011;39919;38.160;-122.260;2023-06-10T06:01:03;0.10;;;0.00;;
54005;SDS011;39919;38.160;-122.260;2023-06-10T06:03:34;0.35;;;0.00;;
54005;SDS011;39919;38.160;-122.260;2023-06-10T06:06:03;0.05;;;0.00;;
54005;SDS011;39919;38.160;-122.260;2023-06-10T06:08:33;0.57;;;0.00;;
54005;SDS011;39919;38.160;-122.260;2023-06-10T06:11:04;0.60;;;0.00;;
54005;SDS011;39919;38.160;-122.260;2023-06-10T06:13:35;0.40;;;0.00;;
54005;SDS011;39919;38.160;-122.260;2023-06-10T06:16:04;0.88;;;0.52;;
54005;SDS011;39919;38.160;-122.260;2023-06-10T06:18:34;0.13;;;0.00;;
54005;SDS011;39919;38.160;-122.260;2023-06-10T06:21:03;0.55;;;0.00;;
54005;SDS011;39919;38.160;-122.260;2023-06-10T06:23:32;0.00;;;0.00;;
54005;SDS011;39919;38.160;-122.260;2023-06-10T06:26:06;3.65;;;0.10;;
54005;SDS011;39919;38.160;-122.260;2023-06-10T06:28:42;0.00;;;0.00;;
54005;SDS011;39919;38.160;-122.260;2023-06-10T06:31:14;0.70;;;0.00;;
54005;SDS011;39919;38.160;-122.260;2023-06-10T06:33:43;1.98;;;0.00;;
54005;SDS011;39919;38.160;-122.260;2023-06-10T06:36:15;1.45;;;0.00;;
54005;SDS011;39919;38.160;-122.260;2023-06-10T06:38:49;0.52;;;0.20;;
54005;SDS011;39919;38.160;-122.260;2023-06-10T06:41:19;0.20;;;0.00;;
54005;SDS011;39919;38.160;-122.260;2023-06-10T06:43:57;0.30;;;0.08;;
54005;SDS011;39919;38.160;-122.260;2023-06-10T06:46:26;0.10;;;0.00;;
54005;SDS011;39919;38.160;-122.260;2023-06-10T06:48:56;1.85;;;0.08;;
54005;SDS011;39919;38.160;-122.260;2023-06-10T06:51:25;0.43;;;0.00;;
54005;SDS011;39919;38.160;-122.260;2023-06-10T06:53:57;0.52;;;0.00;;
54005;SDS011;39919;38.160;-122.260;2023-06-10T06:56:27;2.05;;;0.10;;
54005;SDS011;39919;38.160;-122.260;2023-06-10T06:59:01;0.93;;;0.00;;
54005;SDS011;39919;38.160;-122.260;2023-06-10T07:01:32;1.25;;;0.25;;
54005;SDS011;39919;38.160;-122.260;2023-06-10T07:04:02;1.20;;;0.10;;
54005;SDS011;39919;38.160;-122.260;2023-06-10T07:06:31;2.05;;;0.10;;
54005;SDS011;39919;38.160;-122.260;2023-06-10T07:09:01;1.58;;;0.10;;
54005;SDS011;39919;38.160;-122.260;2023-06-10T07:11:34;1.05;;;0.10;;
54005;SDS011;39919;38.160;-122.260;2023-06-10T07:14:10;0.30;;;0.10;;
54005;SDS011;39919;38.160;-122.260;2023-06-10T07:16:43;0.22;;;0.10;;
54005;SDS011;39919;38.160;-122.260;2023-06-10T07:19:15;1.40;;;0.08;;
54005;SDS011;39919;38.160;-122.260;2023-06-10T07:21:44;1.05;;;0.10;;
54005;SDS011;39919;38.160;-122.260;2023-06-10T07:24:25;1.65;;;0.05;;
54005;SDS011;39919;38.160;-122.260;2023-06-10T07:26:56;1.13;;;0.10;;
54005;SDS011;39919;38.160;-122.260;2023-06-10T07:29:33;0.95;;;0.10;;
54005;SDS011;39919;38.160;-122.260;2023-06-10T07:32:04;2.33;;;0.20;;
54005;SDS011;39919;38.160;-122.260;2023-06-10T07:34:34;2.38;;;0.10;;
54005;SDS011;39919;38.160;-122.260;2023-06-10T07:37:03;2.38;;;0.20;;
54005;SDS011;39919;38.160;-122.260;2023-06-10T07:39:36;1.80;;;0.20;;
54005;SDS011;39919;38.160;-122.260;2023-06-10T07:42:10;3.20;;;0.10;;
54005;SDS011;39919;38.160;-122.260;2023-06-10T07:44:41;2.15;;;0.10;;
54005;SDS011;39919;38.160;-122.260;2023-06-10T07:47:12;1.27;;;0.10;;
54005;SDS011;39919;38.160;-122.260;2023-06-10T07:49:41;0.40;;;0.10;;
54005;SDS011;39919;38.160;-122.260;2023-06-10T07:52:13;0.85;;;0.10;;
54005;SDS011;39919;38.160;-122.260;2023-06-10T07:54:43;0.13;;;0.10;;
54005;SDS011;39919;38.160;-122.260;2023-06-10T07:57:12;0.85;;;0.10;;
54005;SDS011;39919;38.160;-122.260;2023-06-10T07:59:45;0.32;;;0.00;;
54005;SDS011;39919;38.160;-122.260;2023-06-10T08:02:14;1.98;;;0.10;;
54005;SDS011;39919;38.160;-122.260;2023-06-10T08:04:43;1.17;;;0.03;;
54005;SDS011;39919;38.160;-122.260;2023-06-10T08:07:13;1.08;;;0.10;;
54005;SDS011;39919;38.160;-122.260;2023-06-10T08:09:45;0.30;;;0.10;;
54005;SDS011;39919;38.160;-122.260;2023-06-10T08:12:14;2.38;;;0.00;;
54005;SDS011;39919;38.160;-122.260;2023-06-10T08:14:46;1.95;;;0.10;;
54005;SDS011;39919;38.160;-122.260;2023-06-10T08:17:15;0.40;;;0.10;;
54005;SDS011;39919;38.160;-122.260;2023-06-10T08:19:44;1.67;;;0.10;;
54005;SDS011;39919;38.160;-122.260;2023-06-10T08:22:13;3.35;;;0.13;;
54005;SDS011;39919;38.160;-122.260;2023-06-10T08:24:43;2.03;;;0.63;;
54005;SDS011;39919;38.160;-122.260;2023-06-10T08:27:12;0.85;;;0.40;;
54005;SDS011;39919;38.160;-122.260;2023-06-10T08:29:41;0.98;;;0.10;;
54005;SDS011;39919;38.160;-122.260;2023-06-10T08:32:12;2.92;;;0.20;;
54005;SDS011;39919;38.160;-122.260;2023-06-10T08:34:41;0.20;;;0.10;;
54005;SDS011;39919;38.160;-122.260;2023-06-10T08:37:10;1.00;;;0.10;;
54005;SDS011;39919;38.160;-122.260;2023-06-10T08:39:41;0.35;;;0.10;;
54005;SDS011;39919;38.160;-122.260;2023-06-10T08:42:11;0.50;;;0.10;;
54005;SDS011;39919;38.160;-122.260;2023-06-10T08:44:49;0.75;;;0.10;;
54005;SDS011;39919;38.160;-122.260;2023-06-10T08:47:25;1.52;;;0.17;;
54005;SDS011;39919;38.160;-122.260;2023-06-10T08:50:01;2.17;;;0.10;;
54005;SDS011;39919;38.160;-122.260;2023-06-10T08:52:34;1.55;;;0.17;;
54005;SDS011;39919;38.160;-122.260;2023-06-10T08:55:05;1.70;;;0.10;;
54005;SDS011;39919;38.160;-122.260;2023-06-10T08:57:46;0.65;;;0.10;;
54005;SDS011;39919;38.160;-122.260;2023-06-10T09:00:16;0.90;;;0.00;;
54005;SDS011;39919;38.160;-122.260;2023-06-10T09:02:48;0.70;;;0.10;;
54005;SDS011;39919;38.160;-122.260;2023-06-10T09:05:21;1.10;;;0.10;;
54005;SDS011;39919;38.160;-122.260;2023-06-10T09:07:51;0.52;;;0.10;;
54005;SDS011;39919;38.160;-122.260;2023-06-10T09:10:24;1.50;;;0.20;;
54005;SDS011;39919;38.160;-122.260;2023-06-10T09:12:54;1.10;;;0.20;;
54005;SDS011;39919;38.160;-122.260;2023-06-10T09:15:23;0.40;;;0.13;;
54005;SDS011;39919;38.160;-122.260;2023-06-10T09:17:54;0.20;;;0.20;;
54005;SDS011;39919;38.160;-122.260;2023-06-10T09:20:29;1.55;;;0.10;;
54005;SDS011;39919;38.160;-122.260;2023-06-10T09:22:59;0.47;;;0.15;;
54005;SDS011;39919;38.160;-122.260;2023-06-10T09:25:35;0.10;;;0.10;;
54005;SDS011;39919;38.160;-122.260;2023-06-10T09:28:12;0.85;;;0.10;;
54005;SDS011;39919;38.160;-122.260;2023-06-10T09:30:42;0.65;;;0.30;;
54005;SDS011;39919;38.160;-122.260;2023-06-10T09:33:16;0.40;;;0.10;;
54005;SDS011;39919;38.160;-122.260;2023-06-10T09:35:45;1.02;;;0.10;;
54005;SDS011;39919;38.160;-122.260;2023-06-10T09:38:15;1.30;;;0.10;;
54005;SDS011;39919;38.160;-122.260;2023-06-10T09:40:49;1.05;;;0.10;;
54005;SDS011;39919;38.160;-122.260;2023-06-10T09:43:20;0.98;;;0.10;;
54005;SDS011;39919;38.160;-122.260;2023-06-10T09:45:50;2.22;;;0.30;;
54005;SDS011;39919;38.160;-122.260;2023-06-10T09:48:27;0.32;;;0.15;;
54005;SDS011;39919;38.160;-122.260;2023-06-10T09:50:58;0.88;;;0.10;;
54005;SDS011;39919;38.160;-122.260;2023-06-10T09:53:27;2.22;;;0.10;;
54005;SDS011;39919;38.160;-122.260;2023-06-10T09:56:00;1.23;;;0.10;;
54005;SDS011;39919;38.160;-122.260;2023-06-10T09:58:36;1.73;;;0.10;;
54005;SDS011;39919;38.160;-122.260;2023-06-10T10:01:09;1.20;;;0.10;;
54005;SDS011;39919;38.160;-122.260;2023-06-10T10:03:50;1.65;;;0.45;;
54005;SDS011;39919;38.160;-122.260;2023-06-10T10:06:19;0.85;;;0.10;;
54005;SDS011;39919;38.160;-122.260;2023-06-10T10:08:49;0.20;;;0.10;;
54005;SDS011;39919;38.160;-122.260;2023-06-10T10:11:22;0.68;;;0.10;;
54005;SDS011;39919;38.160;-122.260;2023-06-10T10:13:51;0.25;;;0.10;;
54005;SDS011;39919;38.160;-122.260;2023-06-10T10:16:21;0.30;;;0.00;;
54005;SDS011;39919;38.160;-122.260;2023-06-10T10:19:01;0.85;;;0.10;;
54005;SDS011;39919;38.160;-122.260;2023-06-10T10:21:38;0.20;;;0.10;;
54005;SDS011;39919;38.160;-122.260;2023-06-10T10:24:14;1.98;;;0.20;;
54005;SDS011;39919;38.160;-122.260;2023-06-10T10:26:50;0.10;;;0.00;;
54005;SDS011;39919;38.160;-122.260;2023-06-10T10:29:31;0.30;;;0.10;;
54005;SDS011;39919;38.160;-122.260;2023-06-10T10:32:06;1.60;;;0.17;;
54005;SDS011;39919;38.160;-122.260;2023-06-10T10:34:42;1.17;;;0.10;;
54005;SDS011;39919;38.160;-122.260;2023-06-10T10:37:18;0.15;;;0.10;;
54005;SDS011;39919;38.160;-122.260;2023-06-10T10:39:48;2.38;;;0.10;;
54005;SDS011;39919;38.160;-122.260;2023-06-10T10:42:20;0.50;;;0.08;;
54005;SDS011;39919;38.160;-122.260;2023-06-10T10:44:50;0.30;;;0.00;;
54005;SDS011;39919;38.160;-122.260;2023-06-10T10:47:21;0.52;;;0.10;;
54005;SDS011;39919;38.160;-122.260;2023-06-10T10:49:56;0.57;;;0.10;;
54005;SDS011;39919;38.160;-122.260;2023-06-10T10:52:26;2.50;;;0.20;;
54005;SDS011;39919;38.160;-122.260;2023-06-10T10:55:14;2.83;;;0.28;;
54005;SDS011;39919;38.160;-122.260;2023-06-10T10:57:43;1.38;;;0.30;;
54005;SDS011;39919;38.160;-122.260;2023-06-10T11:00:13;0.50;;;0.25;;
54005;SDS011;39919;38.160;-122.260;2023-06-10T11:02:57;0.40;;;0.20;;
54005;SDS011;39919;38.160;-122.260;2023-06-10T11:05:39;0.80;;;0.10;;
54005;SDS011;39919;38.160;-122.260;2023-06-10T11:08:13;0.30;;;0.13;;
54005;SDS011;39919;38.160;-122.260;2023-06-10T11:10:51;1.58;;;0.50;;
54005;SDS011;39919;38.160;-122.260;2023-06-10T11:13:21;0.40;;;0.20;;
54005;SDS011;39919;38.160;-122.260;2023-06-10T11:15:50;0.68;;;0.35;;
54005;SDS011;39919;38.160;-122.260;2023-06-10T11:18:23;0.77;;;0.38;;
54005;SDS011;39919;38.160;-122.260;2023-06-10T11:20:56;0.93;;;0.30;;
54005;SDS011;39919;38.160;-122.260;2023-06-10T11:23:34;0.55;;;0.30;;
54005;SDS011;39919;38.160;-122.260;2023-06-10T11:29:06;1.10;;;0.30;;
54005;SDS011;39919;38.160;-122.260;2023-06-10T11:31:38;0.45;;;0.32;;
54005;SDS011;39919;38.160;-122.260;2023-06-10T11:34:12;2.13;;;0.40;;
54005;SDS011;39919;38.160;-122.260;2023-06-10T11:36:44;2.45;;;0.70;;
54005;SDS011;39919;38.160;-122.260;2023-06-10T11:39:16;2.78;;;0.80;;
54005;SDS011;39919;38.160;-122.260;2023-06-10T11:41:52;1.88;;;0.68;;
54005;SDS011;39919;38.160;-122.260;2023-06-10T11:44:27;2.78;;;0.70;;
54005;SDS011;39919;38.160;-122.260;2023-06-10T11:47:03;0.63;;;0.40;;
54005;SDS011;39919;38.160;-122.260;2023-06-10T11:49:37;1.27;;;0.30;;
54005;SDS011;39919;38.160;-122.260;2023-06-10T11:52:08;1.33;;;0.20;;
54005;SDS011;39919;38.160;-122.260;2023-06-10T11:54:38;0.65;;;0.20;;
54005;SDS011;39919;38.160;-122.260;2023-06-10T11:57:08;0.47;;;0.20;;
54005;SDS011;39919;38.160;-122.260;2023-06-10T11:59:37;0.45;;;0.10;;
54005;SDS011;39919;38.160;-122.260;2023-06-10T12:02:06;0.88;;;0.10;;
54005;SDS011;39919;38.160;-122.260;2023-06-10T12:04:43;1.10;;;0.50;;
54005;SDS011;39919;38.160;-122.260;2023-06-10T12:07:21;1.75;;;0.77;;
54005;SDS011;39919;38.160;-122.260;2023-06-10T12:09:58;1.10;;;0.63;;
54005;SDS011;39919;38.160;-122.260;2023-06-10T12:12:29;1.20;;;0.90;;
54005;SDS011;39919;38.160;-122.260;2023-06-10T12:14:59;2.47;;;0.50;;
54005;SDS011;39919;38.160;-122.260;2023-06-10T12:17:36;0.85;;;0.50;;
54005;SDS011;39919;38.160;-122.260;2023-06-10T12:20:12;1.08;;;0.40;;
54005;SDS011;39919;38.160;-122.260;2023-06-10T12:22:59;0.40;;;0.20;;
54005;SDS011;39919;38.160;-122.260;2023-06-10T12:25:39;1.33;;;0.22;;
54005;SDS011;39919;38.160;-122.260;2023-06-10T12:28:17;1.70;;;0.30;;
54005;SDS011;39919;38.160;-122.260;2023-06-10T12:30:49;2.47;;;0.22;;
54005;SDS011;39919;38.160;-122.260;2023-06-10T12:33:19;2.00;;;0.30;;
54005;SDS011;39919;38.160;-122.260;2023-06-10T12:36:00;2.33;;;0.85;;
54005;SDS011;39919;38.160;-122.260;2023-06-10T12:38:33;1.58;;;0.20;;
54005;SDS011;39919;38.160;-122.260;2023-06-10T12:41:03;0.20;;;0.20;;
54005;SDS011;39919;38.160;-122.260;2023-06-10T12:43:33;2.58;;;0.10;;
54005;SDS011;39919;38.160;-122.260;2023-06-10T12:46:08;1.65;;;0.10;;
54005;SDS011;39919;38.160;-122.260;2023-06-10T12:48:43;0.47;;;0.20;;
54005;SDS011;39919;38.160;-122.260;2023-06-10T12:51:21;1.17;;;0.30;;
54005;SDS011;39919;38.160;-122.260;2023-06-10T12:53:53;0.22;;;0.20;;
54005;SDS011;39919;38.160;-122.260;2023-06-10T12:56:22;0.32;;;0.10;;
54005;SDS011;39919;38.160;-122.260;2023-06-10T12:58:55;0.57;;;0.45;;
54005;SDS011;39919;38.160;-122.260;2023-06-10T13:01:24;0.85;;;0.47;;
54005;SDS011;39919;38.160;-122.260;2023-06-10T13:03:53;1.73;;;0.30;;
54005;SDS011;39919;38.160;-122.260;2023-06-10T13:06:25;1.90;;;0.63;;
54005;SDS011;39919;38.160;-122.260;2023-06-10T13:09:01;2.25;;;0.52;;
54005;SDS011;39919;38.160;-122.260;2023-06-10T13:11:32;1.35;;;0.88;;
54005;SDS011;39919;38.160;-122.260;2023-06-10T13:14:02;2.78;;;0.60;;
54005;SDS011;39919;38.160;-122.260;2023-06-10T13:16:32;1.83;;;0.50;;
54005;SDS011;39919;38.160;-122.260;2023-06-10T13:19:04;2.50;;;0.55;;
54005;SDS011;39919;38.160;-122.260;2023-06-10T13:21:33;1.58;;;0.65;;
54005;SDS011;39919;38.160;-122.260;2023-06-10T13:24:04;1.05;;;0.40;;
54005;SDS011;39919;38.160;-122.260;2023-06-10T13:26:36;0.80;;;0.55;;
54005;SDS011;39919;38.160;-122.260;2023-06-10T13:29:07;2.95;;;0.60;;
54005;SDS011;39919;38.160;-122.260;2023-06-10T13:31:39;1.10;;;0.55;;
54005;SDS011;39919;38.160;-122.260;2023-06-10T13:34:12;1.02;;;0.40;;
54005;SDS011;39919;38.160;-122.260;2023-06-10T13:36:41;2.58;;;0.30;;
54005;SDS011;39919;38.160;-122.260;2023-06-10T13:39:12;2.00;;;0.50;;
54005;SDS011;39919;38.160;-122.260;2023-06-10T13:41:44;3.33;;;0.55;;
54005;SDS011;39919;38.160;-122.260;2023-06-10T13:44:13;2.15;;;0.57;;
54005;SDS011;39919;38.160;-122.260;2023-06-10T13:46:42;1.60;;;0.55;;
54005;SDS011;39919;38.160;-122.260;2023-06-10T13:49:11;1.30;;;0.30;;
54005;SDS011;39919;38.160;-122.260;2023-06-10T13:51:41;0.85;;;0.20;;
54005;SDS011;39919;38.160;-122.260;2023-06-10T13:54:10;1.83;;;0.20;;
54005;SDS011;39919;38.160;-122.260;2023-06-10T13:56:41;1.98;;;0.20;;
54005;SDS011;39919;38.160;-122.260;2023-06-10T13:59:12;1.55;;;0.20;;
54005;SDS011;39919;38.160;-122.260;2023-06-10T14:01:42;3.25;;;0.85;;
54005;SDS011;39919;38.160;-122.260;2023-06-10T14:04:11;5.05;;;0.30;;
54005;SDS011;39919;38.160;-122.260;2023-06-10T14:06:45;1.65;;;0.30;;
54005;SDS011;39919;38.160;-122.260;2023-06-10T14:09:16;2.05;;;0.25;;
54005;SDS011;39919;38.160;-122.260;2023-06-10T14:11:47;0.95;;;0.10;;
54005;SDS011;39919;38.160;-122.260;2023-06-10T14:14:19;2.55;;;0.50;;
54005;SDS011;39919;38.160;-122.260;2023-06-10T14:17:01;0.65;;;0.13;;
54005;SDS011;39919;38.160;-122.260;2023-06-10T14:19:31;0.35;;;0.10;;
54005;SDS011;39919;38.160;-122.260;2023-06-10T14:22:00;1.05;;;0.20;;
54005;SDS011;39919;38.160;-122.260;2023-06-10T14:24:34;0.55;;;0.20;;
54005;SDS011;39919;38.160;-122.260;2023-06-10T14:27:08;2.58;;;0.22;;
54005;SDS011;39919;38.160;-122.260;2023-06-10T14:29:38;2.22;;;0.17;;
54005;SDS011;39919;38.160;-122.260;2023-06-10T14:32:07;1.25;;;0.20;;
54005;SDS011;39919;38.160;-122.260;2023-06-10T14:34:39;1.05;;;0.13;;
54005;SDS011;39919;38.160;-122.260;2023-06-10T14:37:10;1.60;;;0.20;;
54005;SDS011;39919;38.160;-122.260;2023-06-10T14:39:41;0.98;;;0.20;;
54005;SDS011;39919;38.160;-122.260;2023-06-10T14:42:12;1.55;;;0.20;;
54005;SDS011;39919;38.160;-122.260;2023-06-10T14:44:44;1.33;;;0.30;;
54005;SDS011;39919;38.160;-122.260;2023-06-10T14:47:16;0.50;;;0.10;;